sensor_id;sensor_type;location;lat;lon;timestamp;pressure;altitude;pressure_sealevel;temperature;humidity
30935;BME280;51033;42.648;23.292;2023-01-30T00:01:04;94072.41;;;-1.08;60.35
30935;BME280;51033;42.648;23.292;2023-01-30T00:03:30;94063.72;;;-0.97;59.81
30935;BME280;51033;42.648;23.292;2023-01-30T00:05:56;94082.41;;;-0.71;59.60
30935;BME280;51033;42.648;23.292;2023-01-30T00:08:21;94053.00;;;-0.83;58.98
30935;BME280;51033;42.648;23.292;2023-01-30T00:10:48;94011.50;;;-1.13;59.83
30935;BME280;51033;42.648;23.292;2023-01-30T00:13:14;94067.56;;;-0.87;59.90
30935;BME280;51033;42.648;23.292;2023-01-30T00:15:40;94062.31;;;-0.87;60.40
30935;BME280;51033;42.648;23.292;2023-01-30T00:18:06;94048.34;;;-1.10;60.74
30935;BME280;51033;42.648;23.292;2023-01-30T00:20:31;94068.13;;;-1.14;61.51
30935;BME280;51033;42.648;23.292;2023-01-30T00:22:57;94060.53;;;-1.15;60.88
30935;BME280;51033;42.648;23.292;2023-01-30T00:25:24;94071.28;;;-1.12;61.07
30935;BME280;51033;42.648;23.292;2023-01-30T00:27:49;94058.63;;;-1.20;60.88
30935;BME280;51033;42.648;23.292;2023-01-30T00:30:15;94053.47;;;-1.31;60.46
30935;BME280;51033;42.648;23.292;2023-01-30T00:32:40;94041.97;;;-1.30;60.42
30935;BME280;51033;42.648;23.292;2023-01-30T00:35:06;94078.47;;;-1.19;60.69
30935;BME280;51033;42.648;23.292;2023-01-30T00:37:31;94027.13;;;-1.58;60.33
30935;BME280;51033;42.648;23.292;2023-01-30T00:39:57;94064.75;;;-1.26;59.84
30935;BME280;51033;42.648;23.292;2023-01-30T00:42:22;94053.69;;;-1.33;60.47
30935;BME280;51033;42.648;23.292;2023-01-30T00:45:09;94018.00;;;-1.44;59.54
30935;BME280;51033;42.648;23.292;2023-01-30T00:47:53;94056.75;;;-1.36;59.28
30935;BME280;51033;42.648;23.292;2023-01-30T00:50:19;94005.97;;;-1.73;60.04
30935;BME280;51033;42.648;23.292;2023-01-30T00:52:44;94038.97;;;-1.39;60.04
30935;BME280;51033;42.648;23.292;2023-01-30T00:55:09;94033.09;;;-1.46;59.95
30935;BME280;51033;42.648;23.292;2023-01-30T00:57:35;94041.97;;;-1.30;59.44
30935;BME280;51033;42.648;23.292;2023-01-30T01:00:00;94022.06;;;-1.20;59.24
30935;BME280;51033;42.648;23.292;2023-01-30T01:02:26;94020.16;;;-1.24;58.61
30935;BME280;51033;42.648;23.292;2023-01-30T01:04:51;94026.88;;;-1.28;58.30
30935;BME280;51033;42.648;23.292;2023-01-30T01:07:17;94038.03;;;-1.33;58.71
30935;BME280;51033;42.648;23.292;2023-01-30T01:09:42;94042.78;;;-1.58;59.50
30935;BME280;51033;42.648;23.292;2023-01-30T01:12:08;94044.47;;;-1.52;60.06
30935;BME280;51033;42.648;23.292;2023-01-30T01:14:33;94018.59;;;-1.82;60.64
30935;BME280;51033;42.648;23.292;2023-01-30T01:16:59;94039.59;;;-1.60;60.53
30935;BME280;51033;42.648;23.292;2023-01-30T01:19:24;94005.53;;;-1.70;60.48
30935;BME280;51033;42.648;23.292;2023-01-30T01:21:50;94005.97;;;-1.73;60.80
30935;BME280;51033;42.648;23.292;2023-01-30T01:24:15;94017.25;;;-1.56;60.05
30935;BME280;51033;42.648;23.292;2023-01-30T01:26:42;94025.44;;;-1.36;59.75
30935;BME280;51033;42.648;23.292;2023-01-30T01:29:15;94015.81;;;-1.64;60.40
30935;BME280;51033;42.648;23.292;2023-01-30T01:31:41;94022.75;;;-1.41;60.47
30935;BME280;51033;42.648;23.292;2023-01-30T01:34:07;93997.97;;;-1.55;60.18
30935;BME280;51033;42.648;23.292;2023-01-30T01:36:33;94032.31;;;-1.47;59.93
30935;BME280;51033;42.648;23.292;2023-01-30T01:38:58;94022.47;;;-1.56;60.38
30935;BME280;51033;42.648;23.292;2023-01-30T01:41:24;94018.22;;;-1.74;60.84
30935;BME280;51033;42.648;23.292;2023-01-30T01:44:07;94014.78;;;-1.63;61.24
30935;BME280;51033;42.648;23.292;2023-01-30T01:46:43;93992.38;;;-2.15;61.77
30935;BME280;51033;42.648;23.292;2023-01-30T01:49:23;94007.47;;;-2.29;62.57
30935;BME280;51033;42.648;23.292;2023-01-30T01:54:32;94005.06;;;-2.19;62.98
30935;BME280;51033;42.648;23.292;2023-01-30T01:57:04;94012.22;;;-2.26;63.28
30935;BME280;51033;42.648;23.292;2023-01-30T01:59:34;94002.91;;;-2.22;63.65
30935;BME280;51033;42.648;23.292;2023-01-30T02:02:06;94027.59;;;-2.13;63.30
30935;BME280;51033;42.648;23.292;2023-01-30T02:04:35;94027.25;;;-2.05;63.20
30935;BME280;51033;42.648;23.292;2023-01-30T02:07:21;94006.31;;;-2.33;63.21
30935;BME280;51033;42.648;23.292;2023-01-30T02:09:48;94023.28;;;-2.19;62.90
30935;BME280;51033;42.648;23.292;2023-01-30T02:12:14;94003.19;;;-2.35;63.07
30935;BME280;51033;42.648;23.292;2023-01-30T02:14:40;94031.91;;;-2.18;63.21
30935;BME280;51033;42.648;23.292;2023-01-30T02:17:06;94004.63;;;-2.28;63.05
30935;BME280;51033;42.648;23.292;2023-01-30T02:19:53;94034.41;;;-2.12;62.82
30935;BME280;51033;42.648;23.292;2023-01-30T02:36:05;94032.09;;;-1.97;61.23
30935;BME280;51033;42.648;23.292;2023-01-30T02:43:55;94007.84;;;-1.97;61.73
30935;BME280;51033;42.648;23.292;2023-01-30T02:46:27;94006.69;;;-1.90;60.77
30935;BME280;51033;42.648;23.292;2023-01-30T02:48:59;94010.72;;;-2.10;61.65
30935;BME280;51033;42.648;23.292;2023-01-30T02:51:31;94018.97;;;-2.02;61.41
30935;BME280;51033;42.648;23.292;2023-01-30T02:53:59;94004.47;;;-1.98;61.14
30935;BME280;51033;42.648;23.292;2023-01-30T02:56:24;93981.28;;;-2.22;61.47
30935;BME280;51033;42.648;23.292;2023-01-30T02:59:01;94007.88;;;-2.09;61.91
30935;BME280;51033;42.648;23.292;2023-01-30T03:01:37;94022.63;;;-2.14;62.39
30935;BME280;51033;42.648;23.292;2023-01-30T03:09:57;94018.22;;;-1.74;61.63
30935;BME280;51033;42.648;23.292;2023-01-30T03:15:35;94009.72;;;-1.41;59.99
30935;BME280;51033;42.648;23.292;2023-01-30T03:18:02;94009.16;;;-1.43;59.61
30935;BME280;51033;42.648;23.292;2023-01-30T03:20:29;93998.44;;;-1.58;59.59
30935;BME280;51033;42.648;23.292;2023-01-30T03:22:55;93962.06;;;-1.93;59.95
30935;BME280;51033;42.648;23.292;2023-01-30T03:25:22;93993.63;;;-1.78;60.65
30935;BME280;51033;42.648;23.292;2023-01-30T03:27:51;93986.22;;;-1.69;60.12
30935;BME280;51033;42.648;23.292;2023-01-30T03:30:18;93987.13;;;-1.64;60.00
30935;BME280;51033;42.648;23.292;2023-01-30T03:32:43;93975.66;;;-1.91;60.53
30935;BME280;51033;42.648;23.292;2023-01-30T03:35:09;93972.06;;;-2.02;60.89
30935;BME280;51033;42.648;23.292;2023-01-30T03:37:34;93954.09;;;-2.15;60.79
30935;BME280;51033;42.648;23.292;2023-01-30T03:40:00;93974.66;;;-1.90;60.78
30935;BME280;51033;42.648;23.292;2023-01-30T03:42:26;93953.13;;;-1.97;60.59
30935;BME280;51033;42.648;23.292;2023-01-30T03:44:51;93975.09;;;-1.93;60.73
30935;BME280;51033;42.648;23.292;2023-01-30T03:47:17;93970.75;;;-2.16;61.29
30935;BME280;51033;42.648;23.292;2023-01-30T03:49:42;93947.09;;;-2.38;61.73
30935;BME280;51033;42.648;23.292;2023-01-30T03:52:07;93951.06;;;-2.35;61.60
30935;BME280;51033;42.648;23.292;2023-01-30T03:54:33;93945.72;;;-2.29;61.38
30935;BME280;51033;42.648;23.292;2023-01-30T03:56:58;93940.19;;;-2.32;61.36
30935;BME280;51033;42.648;23.292;2023-01-30T03:59:23;93966.38;;;-1.99;61.20
30935;BME280;51033;42.648;23.292;2023-01-30T04:01:49;93953.25;;;-2.04;60.54
30935;BME280;51033;42.648;23.292;2023-01-30T04:04:14;93955.75;;;-2.09;61.00
30935;BME280;51033;42.648;23.292;2023-01-30T04:06:40;93973.69;;;-1.84;60.54
30935;BME280;51033;42.648;23.292;2023-01-30T04:09:05;93969.84;;;-1.82;59.91
30935;BME280;51033;42.648;23.292;2023-01-30T04:11:30;93937.53;;;-1.80;59.93
30935;BME280;51033;42.648;23.292;2023-01-30T04:13:56;93938.31;;;-1.80;59.25
30935;BME280;51033;42.648;23.292;2023-01-30T04:16:25;93963.03;;;-1.83;59.88
30935;BME280;51033;42.648;23.292;2023-01-30T04:18:51;93965.06;;;-1.85;59.69
30935;BME280;51033;42.648;23.292;2023-01-30T04:21:17;93963.06;;;-1.94;59.88
30935;BME280;51033;42.648;23.292;2023-01-30T04:23:43;93911.03;;;-2.17;60.01
30935;BME280;51033;42.648;23.292;2023-01-30T04:26:09;93963.31;;;-1.67;59.30
30935;BME280;51033;42.648;23.292;2023-01-30T04:28:35;93939.81;;;-1.56;58.93
30935;BME280;51033;42.648;23.292;2023-01-30T04:31:01;93966.25;;;-1.64;58.99
30935;BME280;51033;42.648;23.292;2023-01-30T04:33:27;93967.00;;;-1.80;59.50
30935;BME280;51033;42.648;23.292;2023-01-30T04:35:53;93962.34;;;-1.78;59.86
30935;BME280;51033;42.648;23.292;2023-01-30T04:38:19;93939.16;;;-1.91;59.45
30935;BME280;51033;42.648;23.292;2023-01-30T04:40:52;93968.16;;;-1.59;59.46
30935;BME280;51033;42.648;23.292;2023-01-30T04:43:18;93936.69;;;-1.69;58.98
30935;BME280;51033;42.648;23.292;2023-01-30T04:45:45;93962.91;;;-1.48;58.93
30935;BME280;51033;42.648;23.292;2023-01-30T04:48:11;93933.47;;;-1.60;58.55
30935;BME280;51033;42.648;23.292;2023-01-30T04:50:40;93946.50;;;-1.60;59.29
30935;BME280;51033;42.648;23.292;2023-01-30T04:53:06;93928.50;;;-1.61;58.91
30935;BME280;51033;42.648;23.292;2023-01-30T04:55:31;93943.03;;;-1.49;58.96
30935;BME280;51033;42.648;23.292;2023-01-30T04:57:57;93923.28;;;-1.61;59.16
30935;BME280;51033;42.648;23.292;2023-01-30T05:00:22;93923.81;;;-1.76;59.01
30935;BME280;51033;42.648;23.292;2023-01-30T05:02:48;93938.97;;;-1.73;59.48
30935;BME280;51033;42.648;23.292;2023-01-30T05:05:13;93923.19;;;-1.66;59.09
30935;BME280;51033;42.648;23.292;2023-01-30T05:07:38;93933.13;;;-1.63;59.65
30935;BME280;51033;42.648;23.292;2023-01-30T05:10:04;93916.28;;;-1.72;58.99
30935;BME280;51033;42.648;23.292;2023-01-30T05:12:30;93916.28;;;-1.72;59.43
30935;BME280;51033;42.648;23.292;2023-01-30T05:14:55;93907.97;;;-1.86;59.42
30935;BME280;51033;42.648;23.292;2023-01-30T05:17:21;93927.94;;;-1.63;59.36
30935;BME280;51033;42.648;23.292;2023-01-30T05:19:46;93910.69;;;-1.81;59.42
30935;BME280;51033;42.648;23.292;2023-01-30T05:22:12;93925.03;;;-1.95;59.27
30935;BME280;51033;42.648;23.292;2023-01-30T05:24:37;93950.13;;;-1.89;59.48
30935;BME280;51033;42.648;23.292;2023-01-30T05:27:03;93954.56;;;-1.90;59.73
30935;BME280;51033;42.648;23.292;2023-01-30T05:29:29;93943.47;;;-1.85;60.14
30935;BME280;51033;42.648;23.292;2023-01-30T05:31:54;93960.00;;;-1.63;59.78
30935;BME280;51033;42.648;23.292;2023-01-30T05:34:20;93953.63;;;-1.55;58.43
30935;BME280;51033;42.648;23.292;2023-01-30T05:36:45;93908.09;;;-1.93;58.93
30935;BME280;51033;42.648;23.292;2023-01-30T05:39:10;93939.38;;;-1.64;59.20
30935;BME280;51033;42.648;23.292;2023-01-30T05:41:36;93949.91;;;-1.59;59.18
30935;BME280;51033;42.648;23.292;2023-01-30T05:44:01;93927.13;;;-1.80;58.81
30935;BME280;51033;42.648;23.292;2023-01-30T05:46:27;93944.84;;;-1.49;58.46
30935;BME280;51033;42.648;23.292;2023-01-30T05:48:52;93931.00;;;-1.66;57.94
30935;BME280;51033;42.648;23.292;2023-01-30T05:51:23;93924.25;;;-1.79;58.37
30935;BME280;51033;42.648;23.292;2023-01-30T05:53:49;93958.06;;;-1.84;59.37
30935;BME280;51033;42.648;23.292;2023-01-30T05:56:15;93959.53;;;-1.88;59.90
30935;BME280;51033;42.648;23.292;2023-01-30T05:58:40;93932.97;;;-2.02;60.15
30935;BME280;51033;42.648;23.292;2023-01-30T06:01:08;93938.28;;;-1.97;60.46
30935;BME280;51033;42.648;23.292;2023-01-30T06:03:35;93963.00;;;-1.71;60.81
30935;BME280;51033;42.648;23.292;2023-01-30T06:06:02;93961.59;;;-1.62;60.37
30935;BME280;51033;42.648;23.292;2023-01-30T06:08:28;93959.72;;;-1.50;60.25
30935;BME280;51033;42.648;23.292;2023-01-30T06:10:53;93935.56;;;-1.73;60.29
30935;BME280;51033;42.648;23.292;2023-01-30T06:13:19;93960.00;;;-1.63;60.19
30935;BME280;51033;42.648;23.292;2023-01-30T06:15:44;93928.47;;;-1.90;60.17
30935;BME280;51033;42.648;23.292;2023-01-30T06:18:10;93960.34;;;-1.59;59.96
30935;BME280;51033;42.648;23.292;2023-01-30T06:20:35;93931.56;;;-1.64;59.26
30935;BME280;51033;42.648;23.292;2023-01-30T06:23:00;93951.72;;;-1.60;59.48
30935;BME280;51033;42.648;23.292;2023-01-30T06:25:26;93922.03;;;-1.87;59.88
30935;BME280;51033;42.648;23.292;2023-01-30T06:27:51;93890.56;;;-1.97;59.71
30935;BME280;51033;42.648;23.292;2023-01-30T06:30:17;93951.41;;;-1.63;59.99
30935;BME280;51033;42.648;23.292;2023-01-30T06:32:42;93928.47;;;-1.90;60.05
30935;BME280;51033;42.648;23.292;2023-01-30T06:35:08;93904.88;;;-2.00;60.33
30935;BME280;51033;42.648;23.292;2023-01-30T06:37:40;93957.59;;;-1.53;59.90
30935;BME280;51033;42.648;23.292;2023-01-30T06:40:05;93928.22;;;-1.76;59.83
30935;BME280;51033;42.648;23.292;2023-01-30T06:42:31;93954.31;;;-1.76;60.38
30935;BME280;51033;42.648;23.292;2023-01-30T06:44:56;93941.06;;;-2.15;61.32
30935;BME280;51033;42.648;23.292;2023-01-30T06:47:21;93913.22;;;-2.26;61.95
30935;BME280;51033;42.648;23.292;2023-01-30T06:49:47;93906.63;;;-2.17;62.11
30935;BME280;51033;42.648;23.292;2023-01-30T06:52:13;93958.75;;;-1.89;61.53
30935;BME280;51033;42.648;23.292;2023-01-30T06:54:38;93963.25;;;-1.84;61.91
30935;BME280;51033;42.648;23.292;2023-01-30T06:57:04;93909.31;;;-2.12;61.54
30935;BME280;51033;42.648;23.292;2023-01-30T06:59:29;93948.22;;;-1.94;62.00
30935;BME280;51033;42.648;23.292;2023-01-30T07:01:54;93975.34;;;-1.66;62.84
30935;BME280;51033;42.648;23.292;2023-01-30T07:04:20;93928.38;;;-1.95;63.54
30935;BME280;51033;42.648;23.292;2023-01-30T07:06:45;93960.63;;;-1.72;63.94
30935;BME280;51033;42.648;23.292;2023-01-30T07:09:11;93949.41;;;-2.01;64.10
30935;BME280;51033;42.648;23.292;2023-01-30T07:11:36;93971.78;;;-1.89;64.98
30935;BME280;51033;42.648;23.292;2023-01-30T07:14:01;93949.94;;;-1.99;64.99
30935;BME280;51033;42.648;23.292;2023-01-30T07:16:27;93968.03;;;-1.81;64.06
30935;BME280;51033;42.648;23.292;2023-01-30T07:18:56;93949.53;;;-1.79;63.59
30935;BME280;51033;42.648;23.292;2023-01-30T07:21:23;93960.41;;;-1.71;63.73
30935;BME280;51033;42.648;23.292;2023-01-30T07:23:49;93973.97;;;-1.69;64.51
30935;BME280;51033;42.648;23.292;2023-01-30T07:26:14;93954.31;;;-1.76;63.44
30935;BME280;51033;42.648;23.292;2023-01-30T07:28:39;93959.50;;;-1.76;63.27
30935;BME280;51033;42.648;23.292;2023-01-30T07:31:05;93970.75;;;-1.59;62.69
30935;BME280;51033;42.648;23.292;2023-01-30T07:33:30;93965.09;;;-1.56;62.57
30935;BME280;51033;42.648;23.292;2023-01-30T07:35:55;93979.97;;;-1.40;62.51
30935;BME280;51033;42.648;23.292;2023-01-30T07:38:21;93985.19;;;-1.40;62.70
30935;BME280;51033;42.648;23.292;2023-01-30T07:40:46;93977.53;;;-1.47;62.45
30935;BME280;51033;42.648;23.292;2023-01-30T07:43:12;93965.28;;;-1.46;61.30
30935;BME280;51033;42.648;23.292;2023-01-30T07:45:43;93998.31;;;-1.35;60.91
30935;BME280;51033;42.648;23.292;2023-01-30T07:48:11;93972.75;;;-1.50;61.22
30935;BME280;51033;42.648;23.292;2023-01-30T07:50:37;93990.59;;;-1.30;61.21
30935;BME280;51033;42.648;23.292;2023-01-30T07:53:04;93964.72;;;-1.48;61.61
30935;BME280;51033;42.648;23.292;2023-01-30T07:55:29;93964.72;;;-1.48;61.35
30935;BME280;51033;42.648;23.292;2023-01-30T07:57:55;93972.50;;;-1.36;61.42
30935;BME280;51033;42.648;23.292;2023-01-30T08:00:20;93923.59;;;-1.58;60.85
30935;BME280;51033;42.648;23.292;2023-01-30T08:02:46;93958.97;;;-1.33;60.60
30935;BME280;51033;42.648;23.292;2023-01-30T08:05:11;93965.22;;;-1.18;60.44
30935;BME280;51033;42.648;23.292;2023-01-30T08:07:37;93930.81;;;-1.15;60.30
30935;BME280;51033;42.648;23.292;2023-01-30T08:10:05;93948.31;;;-0.99;60.06
30935;BME280;51033;42.648;23.292;2023-01-30T08:12:31;93935.53;;;-1.12;60.20
30935;BME280;51033;42.648;23.292;2023-01-30T08:14:56;93915.78;;;-1.24;60.23
30935;BME280;51033;42.648;23.292;2023-01-30T08:17:21;93958.66;;;-1.04;59.84
30935;BME280;51033;42.648;23.292;2023-01-30T08:19:47;93910.59;;;-1.41;59.89
30935;BME280;51033;42.648;23.292;2023-01-30T08:22:13;93949.97;;;-1.09;59.72
30935;BME280;51033;42.648;23.292;2023-01-30T08:24:38;93929.63;;;-1.24;59.57
30935;BME280;51033;42.648;23.292;2023-01-30T08:27:03;93919.28;;;-1.19;59.89
30935;BME280;51033;42.648;23.292;2023-01-30T08:29:29;93945.69;;;-0.99;59.44
30935;BME280;51033;42.648;23.292;2023-01-30T08:31:58;93905.44;;;-1.19;58.88
30935;BME280;51033;42.648;23.292;2023-01-30T08:34:24;93937.59;;;-0.97;57.39
30935;BME280;51033;42.648;23.292;2023-01-30T08:36:50;93925.75;;;-1.05;57.11
30935;BME280;51033;42.648;23.292;2023-01-30T08:39:15;93932.38;;;-0.97;57.15
30935;BME280;51033;42.648;23.292;2023-01-30T08:41:40;93909.22;;;-1.10;56.86
30935;BME280;51033;42.648;23.292;2023-01-30T08:44:08;93931.63;;;-0.98;57.40
30935;BME280;51033;42.648;23.292;2023-01-30T08:46:34;93930.63;;;-0.91;57.85
30935;BME280;51033;42.648;23.292;2023-01-30T08:48:59;93929.69;;;-0.85;58.28
30935;BME280;51033;42.648;23.292;2023-01-30T08:51:24;93897.69;;;-0.98;57.56
30935;BME280;51033;42.648;23.292;2023-01-30T08:53:50;93919.16;;;-0.90;57.49
30935;BME280;51033;42.648;23.292;2023-01-30T08:56:16;93926.94;;;-0.96;57.63
30935;BME280;51033;42.648;23.292;2023-01-30T08:58:41;93921.63;;;-1.01;57.56
30935;BME280;51033;42.648;23.292;2023-01-30T09:01:08;93898.13;;;-1.01;56.44
30935;BME280;51033;42.648;23.292;2023-01-30T09:03:34;93918.75;;;-0.82;56.16
30935;BME280;51033;42.648;23.292;2023-01-30T09:05:59;93899.31;;;-0.91;56.11
30935;BME280;51033;42.648;23.292;2023-01-30T09:08:24;93902.63;;;-0.79;55.54
30935;BME280;51033;42.648;23.292;2023-01-30T09:10:50;93892.97;;;-0.79;55.35
30935;BME280;51033;42.648;23.292;2023-01-30T09:13:15;93890.59;;;-0.97;55.74
30935;BME280;51033;42.648;23.292;2023-01-30T09:15:42;93871.72;;;-0.87;55.12
30935;BME280;51033;42.648;23.292;2023-01-30T09:18:07;93873.78;;;-0.68;55.23
30935;BME280;51033;42.648;23.292;2023-01-30T09:20:33;93875.69;;;-0.63;55.37
30935;BME280;51033;42.648;23.292;2023-01-30T09:22:59;93871.78;;;-0.61;54.69
30935;BME280;51033;42.648;23.292;2023-01-30T09:25:25;93877.19;;;-0.67;54.39
30935;BME280;51033;42.648;23.292;2023-01-30T09:27:51;93867.97;;;-0.91;55.12
30935;BME280;51033;42.648;23.292;2023-01-30T09:30:17;93881.56;;;-0.73;54.82
30935;BME280;51033;42.648;23.292;2023-01-30T09:32:43;93866.53;;;-0.82;55.23
30935;BME280;51033;42.648;23.292;2023-01-30T09:35:09;93878.31;;;-0.63;55.07
30935;BME280;51033;42.648;23.292;2023-01-30T09:37:34;93896.59;;;-0.63;55.17
30935;BME280;51033;42.648;23.292;2023-01-30T09:39:59;93851.41;;;-1.02;54.75
30935;BME280;51033;42.648;23.292;2023-01-30T09:45:43;93894.22;;;-0.81;54.51
30935;BME280;51033;42.648;23.292;2023-01-30T09:48:18;93873.84;;;-0.84;55.29
30935;BME280;51033;42.648;23.292;2023-01-30T09:54:01;93875.44;;;-0.62;54.74
30935;BME280;51033;42.648;23.292;2023-01-30T09:56:28;93836.31;;;-0.78;54.00
30935;BME280;51033;42.648;23.292;2023-01-30T09:58:56;93840.25;;;-0.76;54.34
30935;BME280;51033;42.648;23.292;2023-01-30T10:01:29;93869.34;;;-0.67;54.55
30935;BME280;51033;42.648;23.292;2023-01-30T10:06:27;93840.13;;;-0.86;55.33
30935;BME280;51033;42.648;23.292;2023-01-30T10:09:02;93860.22;;;-0.86;55.97
30935;BME280;51033;42.648;23.292;2023-01-30T10:11:55;93852.88;;;-0.89;56.61
30935;BME280;51033;42.648;23.292;2023-01-30T10:25:46;93828.34;;;-0.67;58.68
30935;BME280;51033;42.648;23.292;2023-01-30T10:31:03;93825.66;;;-0.93;59.19
30935;BME280;51033;42.648;23.292;2023-01-30T10:33:33;93810.63;;;-1.25;60.14
30935;BME280;51033;42.648;23.292;2023-01-30T10:36:10;93803.81;;;-1.26;60.20
30935;BME280;51033;42.648;23.292;2023-01-30T10:38:47;93771.34;;;-1.35;59.81
30935;BME280;51033;42.648;23.292;2023-01-30T10:43:51;93792.25;;;-0.91;60.09
30935;BME280;51033;42.648;23.292;2023-01-30T10:46:30;93739.44;;;-1.20;59.28
30935;BME280;51033;42.648;23.292;2023-01-30T10:49:05;93778.00;;;-1.06;59.39
30935;BME280;51033;42.648;23.292;2023-01-30T10:54:35;93739.78;;;-1.12;59.52
30935;BME280;51033;42.648;23.292;2023-01-30T11:00:02;93732.09;;;-1.02;58.62
30935;BME280;51033;42.648;23.292;2023-01-30T11:03:07;93750.94;;;-1.00;59.66
30935;BME280;51033;42.648;23.292;2023-01-30T11:05:51;93740.72;;;-1.23;60.13
30935;BME280;51033;42.648;23.292;2023-01-30T11:08:28;93682.28;;;-1.44;60.59
30935;BME280;51033;42.648;23.292;2023-01-30T11:10:54;93702.97;;;-1.37;59.52
30935;BME280;51033;42.648;23.292;2023-01-30T11:13:23;93720.28;;;-1.09;60.33
30935;BME280;51033;42.648;23.292;2023-01-30T11:15:53;93698.72;;;-1.43;61.15
30935;BME280;51033;42.648;23.292;2023-01-30T11:18:19;93709.09;;;-1.26;60.89
30935;BME280;51033;42.648;23.292;2023-01-30T11:20:57;93698.97;;;-1.23;60.66
30935;BME280;51033;42.648;23.292;2023-01-30T11:23:34;93695.69;;;-1.35;60.73
30935;BME280;51033;42.648;23.292;2023-01-30T11:26:03;93659.47;;;-1.31;59.97
30935;BME280;51033;42.648;23.292;2023-01-30T11:28:40;93680.09;;;-1.30;60.47
30935;BME280;51033;42.648;23.292;2023-01-30T11:31:19;93644.50;;;-1.41;60.41
30935;BME280;51033;42.648;23.292;2023-01-30T11:33:59;93656.00;;;-1.37;60.67
30935;BME280;51033;42.648;23.292;2023-01-30T11:36:27;93640.94;;;-1.30;59.22
30935;BME280;51033;42.648;23.292;2023-01-30T11:39:17;93625.50;;;-1.36;57.90
30935;BME280;51033;42.648;23.292;2023-01-30T11:44:31;93619.75;;;-1.12;56.61
30935;BME280;51033;42.648;23.292;2023-01-30T11:47:07;93644.34;;;-1.08;54.71
30935;BME280;51033;42.648;23.292;2023-01-30T11:49:42;93626.41;;;-0.99;55.13
30935;BME280;51033;42.648;23.292;2023-01-30T11:52:10;93596.03;;;-1.10;55.66
30935;BME280;51033;42.648;23.292;2023-01-30T11:54:39;93589.06;;;-0.73;54.46
30935;BME280;51033;42.648;23.292;2023-01-30T11:57:13;93606.38;;;-0.62;55.40
30935;BME280;51033;42.648;23.292;2023-01-30T11:59:43;93619.09;;;-0.38;53.11
30935;BME280;51033;42.648;23.292;2023-01-30T12:02:26;93608.88;;;-0.45;53.82
30935;BME280;51033;42.648;23.292;2023-01-30T12:05:00;93561.94;;;-0.99;54.51
30935;BME280;51033;42.648;23.292;2023-01-30T12:07:28;93566.88;;;-0.70;55.37
30935;BME280;51033;42.648;23.292;2023-01-30T12:09:56;93591.22;;;-0.65;54.68
30935;BME280;51033;42.648;23.292;2023-01-30T12:12:34;93590.91;;;-0.73;54.30
30935;BME280;51033;42.648;23.292;2023-01-30T12:15:17;93557.53;;;-0.98;54.99
30935;BME280;51033;42.648;23.292;2023-01-30T12:18:25;93545.44;;;-1.04;54.83
30935;BME280;51033;42.648;23.292;2023-01-30T12:23:45;93577.84;;;-1.00;55.42
30935;BME280;51033;42.648;23.292;2023-01-30T12:26:17;93575.19;;;-1.05;55.07
30935;BME280;51033;42.648;23.292;2023-01-30T12:31:32;93539.13;;;-1.35;55.46
30935;BME280;51033;42.648;23.292;2023-01-30T12:34:03;93541.22;;;-1.37;55.56
30935;BME280;51033;42.648;23.292;2023-01-30T12:36:48;93559.09;;;-1.24;55.42
30935;BME280;51033;42.648;23.292;2023-01-30T12:44:56;93522.41;;;-1.88;56.14
30935;BME280;51033;42.648;23.292;2023-01-30T12:58:23;93533.69;;;-1.82;55.74
30935;BME280;51033;42.648;23.292;2023-01-30T13:03:54;93512.41;;;-1.96;55.00
30935;BME280;51033;42.648;23.292;2023-01-30T13:12:35;93536.34;;;-1.99;54.68
30935;BME280;51033;42.648;23.292;2023-01-30T13:15:05;93518.59;;;-2.02;54.49
30935;BME280;51033;42.648;23.292;2023-01-30T13:20:21;93551.47;;;-2.17;55.38
30935;BME280;51033;42.648;23.292;2023-01-30T13:28:04;93476.28;;;-2.31;55.17
30935;BME280;51033;42.648;23.292;2023-01-30T13:30:33;93511.97;;;-2.09;54.83
30935;BME280;51033;42.648;23.292;2023-01-30T13:33:04;93504.88;;;-2.14;54.84
30935;BME280;51033;42.648;23.292;2023-01-30T13:35:46;93509.75;;;-2.01;55.16
30935;BME280;51033;42.648;23.292;2023-01-30T13:38:25;93483.75;;;-2.17;54.91
30935;BME280;51033;42.648;23.292;2023-01-30T13:40:55;93516.47;;;-1.83;54.75
30935;BME280;51033;42.648;23.292;2023-01-30T13:43:40;93478.03;;;-1.71;53.86
30935;BME280;51033;42.648;23.292;2023-01-30T13:46:10;93492.88;;;-1.71;54.14
30935;BME280;51033;42.648;23.292;2023-01-30T13:56:45;93496.97;;;-1.27;53.25
30935;BME280;51033;42.648;23.292;2023-01-30T14:00:07;93493.25;;;-1.31;53.16
30935;BME280;51033;42.648;23.292;2023-01-30T14:02:24;93488.25;;;-1.64;53.74
30935;BME280;51033;42.648;23.292;2023-01-30T14:10:04;93500.19;;;-1.47;53.28
30935;BME280;51033;42.648;23.292;2023-01-30T14:12:42;93486.63;;;-1.44;53.37
30935;BME280;51033;42.648;23.292;2023-01-30T14:18:12;93504.81;;;-1.27;52.88
30935;BME280;51033;42.648;23.292;2023-01-30T14:20:45;93497.22;;;-1.28;52.96
30935;BME280;51033;42.648;23.292;2023-01-30T14:23:31;93504.19;;;-1.07;52.86
30935;BME280;51033;42.648;23.292;2023-01-30T14:25:57;93488.31;;;-1.01;52.72
30935;BME280;51033;42.648;23.292;2023-01-30T14:38:29;93496.09;;;-1.06;53.55
30935;BME280;51033;42.648;23.292;2023-01-30T14:51:43;93462.00;;;-0.94;54.57
30935;BME280;51033;42.648;23.292;2023-01-30T14:56:42;93463.88;;;-0.89;55.52
30935;BME280;51033;42.648;23.292;2023-01-30T15:01:58;93456.66;;;-1.41;53.77
30935;BME280;51033;42.648;23.292;2023-01-30T15:04:27;93458.91;;;-1.23;55.96
30935;BME280;51033;42.648;23.292;2023-01-30T15:06:54;93452.66;;;-1.22;56.78
30935;BME280;51033;42.648;23.292;2023-01-30T15:09:23;93420.91;;;-1.41;56.77
30935;BME280;51033;42.648;23.292;2023-01-30T15:15:09;93468.22;;;-0.63;55.32
30935;BME280;51033;42.648;23.292;2023-01-30T15:17:56;93469.50;;;-0.66;53.91
30935;BME280;51033;42.648;23.292;2023-01-30T15:23:40;93460.78;;;-0.81;55.54
30935;BME280;51033;42.648;23.292;2023-01-30T15:31:56;93489.38;;;-0.97;56.45
30935;BME280;51033;42.648;23.292;2023-01-30T15:34:23;93495.69;;;-0.92;56.49
30935;BME280;51033;42.648;23.292;2023-01-30T15:36:51;93491.34;;;-0.77;55.71